createdAt,value
2023-08-08T00:01:45.905Z,83.23
2023-08-08T00:04:17.680Z,83.99
2023-08-08T00:06:49.402Z,83.93
2023-08-08T00:09:21.219Z,84.35
2023-08-08T00:11:52.919Z,85.22
2023-08-08T00:14:25.436Z,87.42
2023-08-08T00:16:57.224Z,88.08
2023-08-08T00:19:28.983Z,89.07
2023-08-08T00:22:00.776Z,90.65
2023-08-08T00:24:32.887Z,89.23
2023-08-08T00:27:04.913Z,85.88
2023-08-08T00:29:36.477Z,87.25
2023-08-08T00:32:08.215Z,88.79
2023-08-08T00:34:39.735Z,90.95
2023-08-08T00:37:11.454Z,90.49
2023-08-08T00:39:47.052Z,88.31
2023-08-08T00:42:18.695Z,89.07
2023-08-08T00:44:50.255Z,88.02
2023-08-08T00:47:22.436Z,86.93
2023-08-08T00:49:53.950Z,86.95
2023-08-08T00:52:26.557Z,87.43
2023-08-08T00:54:58.598Z,87.48
2023-08-08T00:57:30.250Z,88.66
2023-08-08T01:00:02.030Z,89.56
2023-08-08T01:02:33.860Z,89.55
2023-08-08T01:05:06.279Z,89.94
2023-08-08T01:08:00.254Z,90.08
2023-08-08T01:10:37.315Z,89.39
2023-08-08T01:13:18.236Z,89.76
2023-08-08T01:15:50.926Z,89.04
2023-08-08T01:18:23.014Z,88.88
2023-08-08T01:20:55.715Z,88.42
2023-08-08T01:23:35.657Z,87.21
2023-08-08T01:26:07.961Z,86.99
2023-08-08T01:28:40.570Z,86.61
2023-08-08T01:31:12.260Z,86.87
2023-08-08T01:33:43.903Z,86.58
2023-08-08T01:36:23.792Z,86.38
2023-08-08T01:39:00.907Z,86.88
2023-08-08T01:41:39.396Z,86.52
2023-08-08T01:44:11.954Z,85.27
2023-08-08T01:46:43.802Z,84.73
2023-08-08T01:49:15.450Z,84.49
2023-08-08T01:51:47.286Z,85.01
2023-08-08T01:54:19.719Z,85.04
2023-08-08T01:56:51.416Z,85.36
2023-08-08T01:59:23.648Z,84.65
2023-08-08T02:01:55.343Z,84.16
2023-08-08T02:04:27.032Z,85.15
2023-08-08T02:06:58.617Z,84.19
2023-08-08T02:09:30.186Z,84.97
2023-08-08T02:12:02.032Z,84.77
2023-08-08T02:14:33.780Z,85.14
2023-08-08T02:17:05.336Z,85.25
2023-08-08T02:19:36.856Z,85.35
2023-08-08T02:22:08.471Z,85.09
2023-08-08T02:24:40.183Z,85.87
2023-08-08T02:27:13.578Z,85.35
2023-08-08T02:29:45.113Z,85.40
2023-08-08T02:32:16.697Z,85.43
2023-08-08T02:34:48.586Z,85.15
2023-08-08T02:37:20.171Z,85.07
2023-08-08T02:39:51.909Z,83.49
2023-08-08T02:42:23.480Z,84.44
2023-08-08T02:44:55.057Z,83.49
2023-08-08T02:47:26.785Z,84.50
2023-08-08T02:49:58.465Z,83.92
2023-08-08T02:52:30.008Z,84.35
2023-08-08T02:55:03.184Z,83.48
2023-08-08T02:57:34.727Z,83.58
2023-08-08T03:00:07.206Z,84.09
2023-08-08T03:02:38.830Z,82.55
2023-08-08T03:05:10.536Z,83.15
2023-08-08T03:07:42.101Z,82.68
2023-08-08T03:10:14.014Z,83.37
2023-08-08T03:12:45.549Z,84.29
2023-08-08T03:15:17.190Z,84.02
2023-08-08T03:17:48.874Z,84.33
2023-08-08T03:20:20.680Z,84.28
2023-08-08T03:22:52.262Z,83.90
2023-08-08T03:25:23.877Z,83.61
2023-08-08T03:27:55.412Z,83.77
2023-08-08T03:30:26.958Z,83.67
2023-08-08T03:32:58.725Z,83.20
2023-08-08T03:35:30.345Z,82.69
2023-08-08T03:38:01.991Z,82.52
2023-08-08T03:40:34.001Z,83.09
2023-08-08T03:43:05.797Z,82.01
2023-08-08T03:45:37.538Z,82.15
2023-08-08T03:48:09.086Z,81.79
2023-08-08T03:50:40.643Z,81.16
2023-08-08T03:53:12.182Z,81.19
2023-08-08T03:55:43.714Z,81.51
2023-08-08T03:58:15.341Z,81.35
2023-08-08T04:00:47.677Z,81.64
2023-08-08T04:03:19.562Z,81.83
2023-08-08T04:05:51.247Z,81.71
2023-08-08T04:08:23.470Z,81.55
2023-08-08T04:10:55.666Z,80.86
2023-08-08T04:13:27.353Z,81.98
2023-08-08T04:15:58.953Z,82.06
2023-08-08T04:18:30.565Z,82.60
2023-08-08T04:21:02.114Z,84.38
2023-08-08T04:23:33.736Z,84.81
2023-08-08T04:26:05.271Z,84.57
2023-08-08T04:28:36.878Z,84.99
2023-08-08T04:31:08.505Z,85.05
2023-08-08T04:33:40.231Z,84.81
2023-08-08T04:36:11.726Z,84.94
2023-08-08T04:38:43.603Z,84.43
2023-08-08T04:41:15.260Z,85.07
2023-08-08T04:43:46.965Z,84.36
2023-08-08T04:46:18.680Z,85.16
2023-08-08T04:48:50.317Z,85.15
2023-08-08T04:51:21.947Z,84.72
2023-08-08T04:53:53.535Z,84.90
2023-08-08T04:56:25.223Z,85.03
2023-08-08T04:58:56.826Z,84.64
2023-08-08T05:01:29.736Z,84.27
2023-08-08T05:04:01.335Z,84.74
2023-08-08T05:06:33.288Z,84.02
2023-08-08T05:09:04.846Z,77.97
2023-08-08T05:11:37.124Z,73.77
2023-08-08T05:14:08.724Z,72.40
2023-08-08T05:16:40.437Z,75.26
2023-08-08T05:19:12.078Z,74.70
2023-08-08T05:21:44.115Z,77.47
2023-08-08T05:24:15.653Z,78.33
2023-08-08T05:26:47.291Z,73.96
2023-08-08T05:29:18.837Z,66.55
2023-08-08T05:31:50.604Z,70.32
2023-08-08T05:34:24.482Z,71.77
2023-08-08T05:37:10.258Z,70.02
2023-08-08T05:39:47.624Z,65.85
2023-08-08T05:42:19.599Z,69.60
2023-08-08T05:44:51.341Z,72.13
2023-08-08T05:47:22.866Z,72.52
2023-08-08T05:49:54.465Z,74.91
2023-08-08T05:52:26.040Z,76.78
2023-08-08T05:55:00.269Z,76.87
2023-08-08T05:57:31.869Z,69.88
2023-08-08T06:00:04.517Z,63.87
2023-08-08T06:02:36.222Z,61.65
2023-08-08T06:05:08.613Z,58.65
2023-08-08T06:07:40.410Z,57.21
2023-08-08T06:10:11.971Z,56.69
2023-08-08T06:12:43.655Z,58.43
2023-08-08T06:15:15.263Z,58.96
2023-08-08T06:17:46.888Z,60.24
2023-08-08T06:20:18.512Z,65.87
2023-08-08T06:22:50.173Z,69.43
2023-08-08T06:25:21.837Z,64.61
2023-08-08T06:27:53.486Z,63.32
2023-08-08T06:30:25.141Z,67.64
2023-08-08T06:32:56.881Z,73.35
2023-08-08T06:35:28.521Z,75.92
2023-08-08T06:38:00.095Z,77.98
2023-08-08T06:40:31.697Z,78.16
2023-08-08T06:43:03.292Z,78.74
2023-08-08T06:45:35.071Z,79.62
2023-08-08T06:48:07.172Z,79.67
2023-08-08T06:50:38.823Z,79.96
2023-08-08T06:53:10.415Z,80.33
2023-08-08T06:55:42.054Z,82.36
2023-08-08T06:58:13.686Z,83.54
2023-08-08T07:00:46.173Z,83.98
2023-08-08T07:03:18.050Z,83.82
2023-08-08T07:05:53.037Z,86.04
2023-08-08T07:08:24.997Z,86.01
2023-08-08T07:10:58.560Z,87.16
2023-08-08T07:13:30.132Z,85.96
2023-08-08T07:16:02.289Z,84.82
2023-08-08T07:18:34.242Z,86.03
2023-08-08T07:21:07.109Z,84.48
2023-08-08T07:23:38.775Z,83.68
2023-08-08T07:26:10.352Z,83.04
2023-08-08T07:28:42.004Z,81.85
2023-08-08T07:31:13.618Z,80.83
2023-08-08T07:33:45.164Z,80.42
2023-08-08T07:36:16.770Z,80.05
2023-08-08T07:38:48.295Z,81.71
2023-08-08T07:41:19.855Z,81.60
2023-08-08T07:43:51.380Z,80.71
2023-08-08T07:46:23.821Z,80.34
2023-08-08T07:48:55.352Z,81.24
2023-08-08T07:51:26.921Z,81.22
2023-08-08T07:53:59.255Z,80.85
2023-08-08T07:56:30.939Z,80.07
2023-08-08T07:59:02.800Z,80.49
2023-08-08T08:01:34.433Z,79.18
2023-08-08T08:04:06.102Z,78.55
2023-08-08T08:06:37.899Z,78.45
2023-08-08T08:09:09.900Z,77.64
2023-08-08T08:11:41.587Z,77.34
2023-08-08T08:14:13.337Z,77.94
2023-08-08T08:16:46.613Z,79.57
2023-08-08T08:19:18.280Z,82.04
2023-08-08T08:21:50.127Z,82.81
2023-08-08T08:24:21.814Z,83.54
2023-08-08T08:26:53.354Z,83.82
2023-08-08T08:29:25.004Z,83.40
2023-08-08T08:31:56.581Z,81.40
2023-08-08T08:34:28.147Z,81.65
2023-08-08T08:36:59.655Z,81.42
2023-08-08T08:39:31.216Z,82.41
2023-08-08T08:42:06.281Z,82.16
2023-08-08T08:44:38.705Z,83.09
2023-08-08T08:47:13.743Z,81.52
2023-08-08T08:49:46.735Z,80.93
2023-08-08T08:52:18.503Z,80.69
2023-08-08T08:54:52.324Z,80.91
2023-08-08T08:57:27.175Z,80.40
2023-08-08T08:59:59.533Z,80.23
2023-08-08T09:02:31.160Z,78.99
2023-08-08T09:05:04.956Z,81.35
2023-08-08T09:07:37.407Z,81.93
2023-08-08T09:10:09.021Z,80.14
2023-08-08T09:12:40.602Z,81.74
2023-08-08T09:15:13.112Z,81.82
2023-08-08T09:17:48.577Z,80.07
2023-08-08T09:20:21.158Z,78.59
2023-08-08T09:22:53.782Z,78.65
2023-08-08T09:25:26.971Z,76.12
2023-08-08T09:27:58.568Z,76.44
2023-08-08T09:30:32.205Z,74.61
2023-08-08T09:33:05.671Z,74.21
2023-08-08T09:35:40.224Z,65.96
2023-08-08T09:38:11.854Z,59.90
2023-08-08T09:40:43.562Z,56.63
2023-08-08T09:43:15.217Z,55.92
2023-08-08T09:45:49.038Z,59.05
2023-08-08T09:48:21.052Z,58.86
2023-08-08T09:50:52.604Z,57.96
2023-08-08T09:53:24.594Z,65.05
2023-08-08T09:55:57.411Z,64.80
2023-08-08T09:58:29.990Z,65.57
2023-08-08T10:01:02.101Z,65.57
2023-08-08T10:03:34.509Z,62.88
2023-08-08T10:06:06.521Z,61.63
2023-08-08T10:08:38.731Z,62.04
2023-08-08T10:11:12.775Z,59.24
2023-08-08T10:13:52.003Z,62.25
2023-08-08T10:16:24.301Z,60.99
2023-08-08T10:18:59.119Z,60.27
2023-08-08T10:21:41.816Z,60.40
2023-08-08T10:24:13.496Z,61.53
2023-08-08T10:26:55.241Z,62.94
2023-08-08T10:29:28.604Z,64.42
2023-08-08T10:32:05.482Z,64.35
2023-08-08T10:34:41.670Z,65.36
2023-08-08T10:37:15.901Z,62.26
2023-08-08T10:40:01.756Z,64.10
2023-08-08T10:42:34.643Z,64.83
2023-08-08T10:45:06.990Z,64.31
2023-08-08T10:47:39.169Z,64.77
2023-08-08T10:50:16.104Z,63.47
2023-08-08T10:52:51.148Z,65.22
2023-08-08T10:55:28.564Z,64.31
2023-08-08T10:58:06.644Z,65.09
2023-08-08T11:00:40.876Z,71.55
2023-08-08T11:03:12.792Z,73.61
2023-08-08T11:05:52.356Z,74.82
2023-08-08T11:08:24.588Z,73.10
2023-08-08T11:10:56.192Z,70.17
2023-08-08T11:13:28.002Z,68.83
2023-08-08T11:15:59.930Z,68.10
2023-08-08T11:18:31.867Z,67.78
2023-08-08T11:21:18.211Z,66.52
2023-08-08T11:23:50.569Z,63.70
2023-08-08T11:26:22.157Z,57.35
2023-08-08T11:28:54.327Z,53.47
2023-08-08T11:31:26.172Z,50.87
2023-08-08T11:34:00.215Z,49.52
2023-08-08T11:36:36.216Z,45.61
2023-08-08T11:39:10.249Z,45.63
2023-08-08T11:41:42.427Z,46.75
2023-08-08T11:44:14.554Z,44.68
2023-08-08T11:46:47.658Z,42.47
2023-08-08T11:49:19.670Z,41.37
2023-08-08T11:51:51.405Z,42.64
2023-08-08T11:54:23.011Z,42.05
2023-08-08T11:56:54.997Z,41.64
2023-08-08T11:59:26.781Z,44.83
2023-08-08T12:01:58.801Z,47.34
2023-08-08T12:04:30.745Z,44.68
2023-08-08T12:07:04.955Z,43.10
2023-08-08T12:09:38.105Z,42.78
2023-08-08T12:12:11.069Z,40.24
2023-08-08T12:14:51.788Z,44.02
2023-08-08T12:17:28.750Z,44.93
2023-08-08T12:20:01.316Z,44.10
2023-08-08T12:22:33.802Z,41.67
2023-08-08T12:25:06.178Z,39.77
2023-08-08T12:27:37.788Z,38.69
2023-08-08T12:30:09.892Z,38.64
2023-08-08T12:32:41.431Z,39.35
2023-08-08T12:35:13.248Z,39.95
2023-08-08T12:37:44.959Z,40.27
2023-08-08T12:40:16.572Z,40.13
2023-08-08T12:42:49.210Z,37.59
2023-08-08T12:45:20.822Z,38.13
2023-08-08T12:47:52.487Z,39.13
2023-08-08T12:50:24.603Z,38.90
2023-08-08T12:52:56.172Z,38.96
2023-08-08T12:55:27.800Z,38.62
2023-08-08T12:57:59.689Z,39.13
2023-08-08T13:00:31.454Z,40.55
2023-08-08T13:03:03.540Z,42.88
2023-08-08T13:05:35.238Z,46.54
2023-08-08T13:08:07.004Z,53.65
2023-08-08T13:10:38.630Z,61.59
2023-08-08T13:13:10.569Z,63.49
2023-08-08T13:15:42.217Z,63.44
2023-08-08T13:18:13.833Z,65.58
2023-08-08T13:20:45.450Z,67.47
2023-08-08T13:23:17.080Z,69.79
2023-08-08T13:25:50.200Z,71.29
2023-08-08T13:28:21.810Z,71.74
2023-08-08T13:30:53.406Z,64.87
2023-08-08T13:33:25.316Z,65.33
2023-08-08T13:35:56.877Z,65.71
2023-08-08T13:38:28.790Z,67.44
2023-08-08T13:41:01.421Z,67.69
2023-08-08T13:43:34.555Z,68.30
2023-08-08T13:46:08.962Z,67.54
2023-08-08T13:48:41.214Z,67.93
2023-08-08T13:51:12.886Z,66.26
2023-08-08T13:53:46.021Z,66.29
2023-08-08T13:56:18.563Z,66.49
2023-08-08T13:58:50.385Z,66.19
2023-08-08T14:01:22.343Z,63.96
2023-08-08T14:03:54.742Z,61.00
2023-08-08T14:06:26.601Z,60.85
2023-08-08T14:08:58.396Z,59.56
2023-08-08T14:11:30.053Z,58.91
2023-08-08T14:14:01.656Z,59.31
2023-08-08T14:16:33.819Z,58.37
2023-08-08T14:19:05.690Z,59.49
2023-08-08T14:21:37.285Z,57.33
2023-08-08T14:24:08.965Z,56.21
2023-08-08T14:26:40.541Z,55.86
2023-08-08T14:29:12.115Z,55.20
2023-08-08T14:31:58.848Z,52.36
2023-08-08T14:34:34.113Z,50.02
2023-08-08T14:37:05.875Z,48.77
2023-08-08T14:39:37.777Z,49.83
2023-08-08T14:42:09.506Z,48.98
2023-08-08T14:44:41.163Z,49.42
2023-08-08T14:47:12.969Z,48.73
2023-08-08T14:49:44.538Z,51.89
2023-08-08T14:52:16.972Z,59.32
2023-08-08T14:54:48.601Z,63.68
2023-08-08T14:57:20.290Z,65.89
2023-08-08T15:02:24.564Z,69.29
2023-08-08T15:04:58.236Z,71.53
2023-08-08T15:07:30.036Z,73.48
2023-08-08T15:10:01.679Z,73.90
2023-08-08T15:12:33.247Z,74.55
2023-08-08T15:15:06.606Z,74.22
2023-08-08T15:17:38.659Z,74.08
2023-08-08T15:20:12.196Z,73.65
2023-08-08T15:22:44.017Z,72.99
2023-08-08T15:25:16.005Z,73.03
2023-08-08T15:27:47.907Z,71.12
2023-08-08T15:30:19.526Z,72.11
2023-08-08T15:32:51.408Z,73.82
2023-08-08T15:35:23.125Z,71.97
2023-08-08T15:37:54.981Z,72.15
2023-08-08T15:40:27.266Z,71.63
2023-08-08T15:42:58.854Z,72.23
2023-08-08T15:45:30.562Z,73.07
2023-08-08T15:48:02.157Z,73.86
2023-08-08T15:50:33.935Z,74.11
2023-08-08T15:53:06.070Z,71.68
2023-08-08T15:55:38.289Z,72.34
2023-08-08T15:58:10.993Z,76.93
2023-08-08T16:00:42.721Z,76.60
2023-08-08T16:03:14.367Z,77.76
2023-08-08T16:05:45.980Z,77.40
2023-08-08T16:08:18.642Z,76.68
2023-08-08T16:10:51.061Z,75.75
2023-08-08T16:13:23.148Z,75.42
2023-08-08T16:15:54.785Z,74.24
2023-08-08T16:18:26.380Z,73.78
2023-08-08T16:20:57.999Z,72.92
2023-08-08T16:23:29.631Z,73.98
2023-08-08T16:26:01.253Z,73.00
2023-08-08T16:28:33.455Z,71.10
2023-08-08T16:31:05.262Z,70.00
2023-08-08T16:33:37.020Z,68.77
2023-08-08T16:36:08.963Z,67.57
2023-08-08T16:38:40.601Z,68.99
2023-08-08T16:41:12.242Z,67.81
2023-08-08T16:43:44.039Z,68.11
2023-08-08T16:46:15.802Z,69.18
2023-08-08T16:48:47.681Z,69.65
2023-08-08T16:51:19.862Z,68.80
2023-08-08T16:53:51.823Z,68.32
2023-08-08T16:56:23.459Z,68.52
2023-08-08T16:58:55.106Z,67.43
2023-08-08T17:01:27.148Z,67.83
2023-08-08T17:03:58.767Z,68.58
2023-08-08T17:06:32.023Z,67.61
2023-08-08T17:09:03.830Z,69.65
2023-08-08T17:11:35.639Z,68.32
2023-08-08T17:14:09.651Z,68.13
2023-08-08T17:16:41.704Z,67.96
2023-08-08T17:19:13.352Z,67.53
2023-08-08T17:21:45.025Z,68.61
2023-08-08T17:24:17.917Z,69.15
2023-08-08T17:26:49.780Z,69.69
2023-08-08T17:29:21.392Z,70.85
2023-08-08T17:31:53.029Z,70.30
2023-08-08T17:34:24.693Z,70.38
2023-08-08T17:36:56.436Z,73.73
2023-08-08T17:39:28.035Z,74.62
2023-08-08T17:42:00.226Z,75.59
2023-08-08T17:44:32.612Z,74.09
2023-08-08T17:47:04.753Z,74.06
2023-08-08T17:49:46.820Z,74.01
2023-08-08T17:52:19.076Z,74.22
2023-08-08T17:54:50.647Z,73.53
2023-08-08T17:57:22.304Z,72.60
2023-08-08T17:59:53.870Z,73.81
2023-08-08T18:02:26.465Z,73.87
2023-08-08T18:04:58.058Z,72.66
2023-08-08T18:07:29.795Z,72.98
2023-08-08T18:10:01.508Z,72.74
2023-08-08T18:12:33.245Z,72.98
2023-08-08T18:15:05.204Z,72.80
2023-08-08T18:17:36.868Z,72.79
2023-08-08T18:20:10.468Z,72.77
2023-08-08T18:22:42.133Z,73.54
2023-08-08T18:25:14.402Z,72.98
2023-08-08T18:27:46.596Z,72.67
2023-08-08T18:30:19.125Z,72.22
2023-08-08T18:32:51.682Z,72.18
2023-08-08T18:35:23.677Z,72.79
2023-08-08T18:37:55.291Z,72.25
2023-08-08T18:40:26.933Z,72.36
2023-08-08T18:42:58.533Z,72.06
2023-08-08T18:45:30.498Z,72.95
2023-08-08T18:48:02.221Z,73.64
2023-08-08T18:50:34.130Z,73.05
2023-08-08T18:53:07.259Z,73.62
2023-08-08T18:55:38.970Z,73.97
2023-08-08T18:58:10.709Z,74.65
2023-08-08T19:00:42.429Z,74.06
2023-08-08T19:03:15.399Z,74.71
2023-08-08T19:05:47.218Z,73.30
2023-08-08T19:08:18.910Z,73.18
2023-08-08T19:10:50.746Z,73.65
2023-08-08T19:13:22.536Z,73.84
2023-08-08T19:15:54.305Z,74.21
2023-08-08T19:18:26.128Z,74.61
2023-08-08T19:20:57.891Z,75.13
2023-08-08T19:23:29.708Z,76.95
2023-08-08T19:26:02.399Z,76.33
2023-08-08T19:28:34.128Z,76.83
2023-08-08T19:31:05.909Z,78.84
2023-08-08T19:33:38.409Z,80.44
2023-08-08T19:36:11.385Z,81.32
2023-08-08T19:38:42.943Z,80.07
2023-08-08T19:41:14.613Z,80.51
2023-08-08T19:43:46.354Z,81.10
2023-08-08T19:46:18.064Z,82.03
2023-08-08T19:48:49.895Z,82.27
2023-08-08T19:51:21.973Z,83.10
2023-08-08T19:53:53.643Z,83.47
2023-08-08T19:56:25.332Z,83.33
2023-08-08T19:58:57.085Z,84.11
2023-08-08T20:01:29.862Z,81.68
2023-08-08T20:04:01.886Z,80.48
2023-08-08T20:06:33.664Z,81.15
2023-08-08T20:09:05.548Z,79.28
2023-08-08T20:11:38.926Z,79.59
2023-08-08T20:14:11.145Z,79.46
2023-08-08T20:16:43.020Z,77.95
2023-08-08T20:19:20.063Z,78.23
2023-08-08T20:21:51.888Z,77.21
2023-08-08T20:24:23.547Z,77.27
2023-08-08T20:26:55.410Z,77.68
2023-08-08T20:29:27.272Z,76.63
2023-08-08T20:31:58.863Z,76.66
2023-08-08T20:34:31.606Z,76.29
2023-08-08T20:37:04.901Z,76.03
2023-08-08T20:39:36.809Z,76.92
2023-08-08T20:42:08.449Z,76.19
2023-08-08T20:44:40.019Z,76.16
2023-08-08T20:47:11.663Z,75.89
2023-08-08T20:49:43.299Z,76.31
2023-08-08T20:52:14.810Z,74.79
2023-08-08T20:54:46.427Z,75.09
2023-08-08T20:57:18.153Z,75.52
2023-08-08T20:59:49.740Z,76.36
2023-08-08T21:02:21.473Z,77.09
2023-08-08T21:04:53.371Z,76.87
2023-08-08T21:07:25.324Z,77.69
2023-08-08T21:09:56.865Z,77.92
2023-08-08T21:12:28.469Z,77.43
2023-08-08T21:15:01.212Z,77.67
2023-08-08T21:17:33.404Z,77.54
2023-08-08T21:20:05.763Z,77.15
2023-08-08T21:22:37.357Z,76.09
2023-08-08T21:25:09.429Z,76.24
2023-08-08T21:27:41.889Z,77.00
2023-08-08T21:30:13.596Z,76.44
2023-08-08T21:32:45.356Z,76.97
2023-08-08T21:35:16.965Z,77.81
2023-08-08T21:37:48.649Z,78.33
2023-08-08T21:40:20.322Z,78.72
2023-08-08T21:42:52.900Z,78.87
2023-08-08T21:45:24.696Z,79.45
2023-08-08T21:47:58.788Z,78.83
2023-08-08T21:50:31.468Z,79.23
2023-08-08T21:53:03.197Z,80.35
2023-08-08T21:55:35.046Z,78.92
2023-08-08T21:58:07.188Z,79.15
2023-08-08T22:00:39.223Z,78.97
2023-08-08T22:03:10.845Z,78.69
2023-08-08T22:05:42.706Z,78.61
2023-08-08T22:08:14.330Z,78.82
2023-08-08T22:10:45.982Z,78.69
2023-08-08T22:13:17.629Z,78.89
2023-08-08T22:15:49.288Z,78.72
2023-08-08T22:18:21.794Z,78.61
2023-08-08T22:20:53.668Z,78.84
2023-08-08T22:23:25.326Z,78.82
2023-08-08T22:25:56.934Z,78.92
2023-08-08T22:28:28.672Z,79.03
2023-08-08T22:31:00.231Z,79.12
2023-08-08T22:33:31.863Z,79.70
2023-08-08T22:36:03.720Z,79.60
2023-08-08T22:38:35.373Z,79.68
2023-08-08T22:41:06.966Z,79.07
2023-08-08T22:43:38.728Z,79.57
2023-08-08T22:46:10.340Z,79.41
2023-08-08T22:48:41.962Z,80.25
2023-08-08T22:51:13.514Z,80.11
2023-08-08T22:53:45.179Z,80.55
2023-08-08T22:56:16.824Z,80.34
2023-08-08T22:58:48.462Z,80.57
2023-08-08T23:01:20.013Z,80.77
2023-08-08T23:03:51.703Z,81.07
2023-08-08T23:06:23.297Z,80.89
2023-08-08T23:08:54.917Z,80.79
2023-08-08T23:11:26.459Z,80.99
2023-08-08T23:13:58.033Z,80.74
2023-08-08T23:16:29.564Z,81.01
2023-08-08T23:19:01.234Z,81.31
2023-08-08T23:21:32.824Z,81.67
2023-08-08T23:24:04.662Z,82.07
2023-08-08T23:26:39.684Z,82.13
2023-08-08T23:29:11.294Z,81.54
2023-08-08T23:31:42.898Z,81.21
2023-08-08T23:34:14.518Z,81.75
2023-08-08T23:36:46.153Z,81.96
2023-08-08T23:39:17.738Z,82.10
2023-08-08T23:41:49.428Z,82.03
2023-08-08T23:44:21.259Z,82.03
2023-08-08T23:46:52.837Z,82.23
2023-08-08T23:49:24.460Z,81.94
2023-08-08T23:51:56.089Z,82.34
2023-08-08T23:54:27.669Z,82.14
2023-08-08T23:56:59.264Z,82.18
2023-08-08T23:59:30.901Z,82.49
